Weather observations for the past three days for
Altus, Altus/Quartz Mountain Regional Airport
| Date | Time (cdt) | Wind (mph) | Vis. (mi.) | Weather | Sky Cond. | Temperature (ºF) | Relative Humidity | Wind Chill (°F) | Heat Index (°F) | Pressure | Precipitation (in) | ||||||
|---|---|---|---|---|---|---|---|---|---|---|---|---|---|---|---|---|---|
| Air | Dwpt | 6 hour | altimeter (in) | sea level (mb) | 1 hr | 3 hr | 6 hr | ||||||||||
| Max. | Min. | ||||||||||||||||
| 03 | 16:35 | S 25 | 10.00 | Fair and Breezy | CLR | 86 | 37.4 | 18% | 83 | 29.92 | 0.0 | ||||||
| 03 | 16:15 | S 23 | 10.00 | Fair and Breezy | CLR | 84.2 | 37.4 | 19% | 81 | 29.94 | 0.0 | ||||||
| 03 | 15:55 | SW 17 G 29 | 10.00 | Fair | CLR | 86 | 37.4 | 18% | 83 | 29.95 | 0.0 | ||||||
| 03 | 15:35 | SW 17 G 25 | 10.00 | Fair | CLR | 84.2 | 35.6 | 18% | 81 | 29.96 | 0.0 | ||||||
| 03 | 15:15 | SW 17 G 24 | 10.00 | Fair | CLR | 84.2 | 35.6 | 18% | 81 | 29.97 | 0.0 | ||||||
| 03 | 14:55 | SW 24 G 33 | 10.00 | Fair and Breezy | CLR | 84.2 | 35.6 | 18% | 81 | 29.98 | 0.0 | ||||||
| 03 | 14:35 | SW 22 G 29 | 10.00 | Fair and Breezy | CLR | 86 | 33.8 | 15% | 83 | 29.99 | 0.0 | ||||||
| 03 | 14:15 | S 9 G 24 | 10.00 | Fair | CLR | 82.4 | 35.6 | 19% | 80 | 30 | 0.0 | ||||||
| 03 | 13:55 | S 13 G 28 | 9.00 | Fair | CLR | 82.4 | 37.4 | 20% | 80 | 30.01 | 0.0 | ||||||
| 03 | 13:35 | S 17 G 25 | 10.00 | Fair | CLR | 82.4 | 37.4 | 20% | 80 | 30.02 | 0.0 | ||||||
| 03 | 13:15 | SW 17 G 25 | 10.00 | Fair | CLR | 82.4 | 35.6 | 19% | 80 | 30.04 | 0.0 | ||||||
| 03 | 12:55 | SW 12 G 25 | 10.00 | Fair | CLR | 82.4 | 39.2 | 21% | 80 | 30.05 | 0.0 | ||||||
| 03 | 12:35 | SW 18 G 33 | 9.00 | Fair | CLR | 82.4 | 35.6 | 19% | 80 | 30.06 | 0.0 | ||||||
| 03 | 12:15 | SW 17 | 10.00 | Fair | CLR | 80.6 | 41 | 24% | 79 | 30.07 | 0.0 | ||||||
| 03 | 11:55 | W 17 | 10.00 | Fair | CLR | 80.6 | 42.8 | 26% | 79 | 30.08 | 0.0 | ||||||
| 03 | 11:35 | W 13 G 20 | 10.00 | Fair | CLR | 78.8 | 42.8 | 28% | 78 | 30.09 | 0.0 | ||||||
| 03 | 11:15 | W 17 | 10.00 | Fair | CLR | 77 | 42.8 | 30% | 78 | 30.09 | 0.0 | ||||||
| 03 | 10:55 | W 13 G 23 | 9.00 | Fair | CLR | 77 | 42.8 | 30% | 78 | 30.1 | 0.0 | ||||||
| 03 | 10:35 | W 13 | 10.00 | Fair | CLR | 73.4 | 42.8 | 33% | 30.1 | 0.0 | |||||||
| 03 | 10:15 | W 12 | 10.00 | Fair | CLR | 71.6 | 42.8 | 36% | 30.11 | 0.0 | |||||||
| 03 | 09:55 | SW 9 | 10.00 | Fair | CLR | 68 | 42.8 | 40% | 30.11 | 0.0 | |||||||
| 03 | 09:35 | SW 9 | 10.00 | Fair | CLR | 66.2 | 42.8 | 43% | 30.11 | 0.0 | |||||||
| 03 | 09:15 | SW 9 | 10.00 | Fair | CLR | 64.4 | 42.8 | 46% | 30.11 | 0.0 | |||||||
| 03 | 08:55 | SW 3 | 10.00 | Fair | CLR | 60.8 | 41 | 48% | 30.11 | 0.0 | |||||||
| 03 | 08:35 | SW 6 | 10.00 | Fair | CLR | 59 | 41 | 51% | 30.11 | 0.0 | |||||||
| 03 | 08:15 | Calm | 10.00 | Fair | CLR | 57.2 | 41 | 55% | 30.1 | 0.0 | |||||||
| 03 | 07:55 | Calm | 10.00 | Fair | CLR | 55.4 | 42.8 | 63% | 30.1 | 0.0 | |||||||
| 03 | 07:35 | S 3 | 10.00 | Fair | CLR | 53.6 | 41 | 63% | 30.1 | 0.0 | |||||||
| 03 | 07:15 | Calm | 10.00 | Fair | CLR | 51.8 | 41 | 67% | 30.09 | 0.0 | |||||||
| 03 | 06:55 | Calm | 10.00 | Fair | CLR | 51.8 | 39.2 | 62% | 30.08 | 0.0 | |||||||
| 03 | 06:35 | SW 3 | 10.00 | Fair | CLR | 50 | 39.2 | 67% | 30.07 | 0.0 | |||||||
| 03 | 06:15 | SW 5 | 10.00 | Fair | CLR | 51.8 | 39.2 | 62% | 30.07 | 0.0 | |||||||
| 03 | 05:55 | SW 3 | 10.00 | Fair | CLR | 51.8 | 39.2 | 62% | 30.07 | 0.0 | |||||||
| 03 | 05:35 | S 3 | 10.00 | Fair | CLR | 51.8 | 39.2 | 62% | 30.07 | 0.0 | |||||||
| 03 | 05:16 | SW 6 | 10.00 | Fair | CLR | 51.8 | 39.2 | 62% | 30.07 | 0.0 | |||||||
| 03 | 04:55 | SW 5 | 10.00 | Fair | CLR | 53.6 | 39.2 | 58% | 30.07 | 0.0 | |||||||
| 03 | 04:35 | S 5 | 10.00 | Fair | CLR | 53.6 | 39.2 | 58% | 30.07 | 0.0 | |||||||
| 03 | 04:15 | Calm | 10.00 | Fair | CLR | 53.6 | 39.2 | 58% | 30.07 | 0.0 | |||||||
| 03 | 03:55 | S 3 | 10.00 | Fair | CLR | 53.6 | 39.2 | 58% | 30.07 | 0.0 | |||||||
| 03 | 03:28 | S 5 | 10.00 | Fair | CLR | 55.4 | 39.2 | 55% | 30.07 | 0.0 | |||||||
| 03 | 03:15 | S 6 | 10.00 | Fair | CLR | 55.4 | 39.2 | 55% | 30.07 | 0.0 | |||||||
| 03 | 02:55 | S 6 | 10.00 | Fair | CLR | 55.4 | 39.2 | 55% | 30.07 | 0.0 | |||||||
| 03 | 02:35 | S 8 | 10.00 | Fair | CLR | 57.2 | 39.2 | 51% | 30.07 | 0.0 | |||||||
| 03 | 02:15 | S 9 | 10.00 | Fair | CLR | 57.2 | 39.2 | 51% | 30.08 | 0.0 | |||||||
| 03 | 01:53 | S 7 | 10.00 | Fair | CLR | 57.2 | 39.2 | 51% | 30.08 | 0.0 | |||||||
| 03 | 01:35 | SE 5 | 10.00 | Fair | CLR | 57.2 | 39.2 | 51% | 30.08 | 0.0 | |||||||
| 03 | 01:15 | S 6 | 10.00 | Fair | CLR | 59 | 39.2 | 48% | 30.08 | 0.0 | |||||||
| 03 | 00:55 | S 7 | 10.00 | Fair | CLR | 59 | 37.4 | 45% | 30.08 | 0.0 | |||||||
| 03 | 00:35 | S 8 | 10.00 | Fair | CLR | 60.8 | 37.4 | 42% | 30.08 | 0.0 | |||||||
| 03 | 00:14 | S 9 | 10.00 | Fair | CLR | 60.8 | 37.4 | 42% | 30.08 | 0.0 | |||||||
| 02 | 23:55 | S 10 | 10.00 | Fair | CLR | 62.6 | 35.6 | 37% | 30.07 | 0.0 | |||||||
| 02 | 23:11 | S 9 | 10.00 | Fair | CLR | 62.6 | 35.6 | 37% | 30.07 | 0.0 | |||||||
| 02 | 22:50 | S 9 | 10.00 | Fair | CLR | 64.4 | 35.6 | 34% | 30.07 | 0.0 | |||||||
| 02 | 22:35 | S 10 | 10.00 | Fair | CLR | 64.4 | 35.6 | 34% | 30.07 | 0.0 | |||||||
| 02 | 22:15 | S 12 | 10.00 | Fair | CLR | 66.2 | 33.8 | 30% | 30.06 | 0.0 | |||||||
| 02 | 21:55 | S 13 | 10.00 | Fair | CLR | 68 | 33.8 | 28% | 30.06 | 0.0 | |||||||
| 02 | 21:35 | S 7 | 10.00 | Fair | CLR | 66.2 | 32 | 28% | 30.06 | 0.0 | |||||||
| 02 | 21:15 | S 7 | 10.00 | Fair | CLR | 66.2 | 30.2 | 26% | 30.05 | 0.0 | |||||||
| 02 | 20:55 | S 7 | 10.00 | Fair | CLR | 68 | 30.2 | 24% | 30.05 | 0.0 | |||||||
| 02 | 20:35 | S 7 | 10.00 | A Few Clouds | FEW120 | 69.8 | 30.2 | 23% | 30.04 | 0.0 | |||||||
| 02 | 20:15 | S 7 | 10.00 | Partly Cloudy | SCT120 | 73.4 | 30.2 | 20% | 30.04 | 0.0 | |||||||
| 02 | 19:54 | SW 6 | 10.00 | A Few Clouds | FEW120 | 77 | 30.2 | 18% | 77 | 30.04 | 0.0 | ||||||
| 02 | 19:35 | SW 7 | 10.00 | Fair | CLR | 77 | 28.4 | 17% | 77 | 30.04 | 0.0 | ||||||
| 02 | 19:15 | Calm | 10.00 | Fair | CLR | 78.8 | 28.4 | 16% | 78 | 30.04 | 0.0 | ||||||
| 02 | 18:55 | W 8 G 15 | 10.00 | A Few Clouds | FEW110 | 78.8 | 30.2 | 17% | 78 | 30.04 | 0.0 | ||||||
| 02 | 18:35 | S 12 | 9.00 | Mostly Cloudy | BKN110 | 78.8 | 30.2 | 17% | 78 | 30.04 | 0.0 | ||||||
| 02 | 18:08 | SE 6 | 8.00 | Mostly Cloudy | BKN110 | 78.8 | 32 | 18% | 78 | 30.05 | 0.0 | ||||||
| 02 | 17:48 | E 5 | 10.00 | Partly Cloudy | SCT110 | 77 | 32 | 19% | 77 | 30.05 | 0.0 | ||||||
| 02 | 17:35 | Calm | 10.00 | Partly Cloudy | SCT110 | 77 | 32 | 19% | 77 | 30.05 | 0.0 | ||||||
| 02 | 17:15 | Vrbl 5 | 10.00 | Mostly Cloudy | BKN110 | 78.8 | 32 | 18% | 78 | 30.05 | 0.0 | ||||||
| 02 | 16:55 | N 9 | 10.00 | Overcast | OVC100 | 78.8 | 33.8 | 20% | 78 | 30.06 | 0.0 | ||||||
| 02 | 16:35 | SE 7 G 17 | 10.00 | Overcast | OVC100 | 80.6 | 32 | 17% | 79 | 30.07 | 0.0 | ||||||
| 02 | 16:15 | S 7 | 10.00 | Mostly Cloudy | BKN100 | 78.8 | 32 | 18% | 78 | 30.08 | 0.0 | ||||||
| 02 | 15:55 | SW 10 | 10.00 | A Few Clouds | FEW100 | 78.8 | 32 | 18% | 78 | 30.09 | 0.0 | ||||||
| 02 | 15:35 | SW 12 | 10.00 | Mostly Cloudy | BKN100 | 78.8 | 33.8 | 20% | 78 | 30.09 | 0.0 | ||||||
| 02 | 15:15 | Vrbl 3 G 13 | 10.00 | Fair | CLR | 77 | 33.8 | 21% | 77 | 30.1 | 0.0 | ||||||
| 02 | 14:35 | W 7 | 10.00 | Partly Cloudy | SCT090 | 78.8 | 35.6 | 21% | 78 | 30.11 | 0.0 | ||||||
| 02 | 14:15 | W 8 | 10.00 | A Few Clouds | FEW090 | 77 | 33.8 | 21% | 77 | 30.12 | 0.0 | ||||||
| 02 | 13:55 | SW 8 G 14 | 10.00 | A Few Clouds | FEW090 | 77 | 37.4 | 24% | 77 | 30.13 | 0.0 | ||||||
| 02 | 13:35 | W 10 G 17 | 10.00 | Fair | CLR | 75.2 | 35.6 | 24% | 76 | 30.14 | 0.0 | ||||||
| 02 | 13:15 | W 8 G 20 | 10.00 | Fair | CLR | 75.2 | 37.4 | 25% | 77 | 30.15 | 0.0 | ||||||
| 02 | 12:55 | W 9 G 18 | 10.00 | Fair | CLR | 75.2 | 39.2 | 27% | 77 | 30.15 | 0.0 | ||||||
| 02 | 12:35 | W 10 | 10.00 | Fair | CLR | 75.2 | 39.2 | 27% | 77 | 30.16 | 0.0 | ||||||
| 02 | 12:15 | W 14 | 10.00 | Fair | CLR | 73.4 | 39.2 | 29% | 30.17 | 0.0 | |||||||
| 02 | 11:58 | SW 8 G 22 | 10.00 | Fair | CLR | 71.6 | 41 | 33% | 30.17 | 0.0 | |||||||
| 02 | 11:37 | SW 15 G 21 | 10.00 | Fair | CLR | 71.6 | 41 | 33% | 30.18 | 0.0 | |||||||
| 02 | 11:10 | W 10 | 10.00 | Fair | CLR | 69.8 | 41 | 35% | 30.18 | 0.0 | |||||||
| 02 | 10:55 | W 8 | 10.00 | Fair | CLR | 68 | 42.8 | 40% | 30.19 | 0.0 | |||||||
| 02 | 10:35 | W 5 | 10.00 | Fair | CLR | 66.2 | 42.8 | 43% | 30.19 | 0.0 | |||||||
| 02 | 10:15 | W 5 | 10.00 | Fair | CLR | 64.4 | 44.6 | 49% | 30.19 | 0.0 | |||||||
| 02 | 09:55 | NW 6 | 10.00 | Fair | CLR | 60.8 | 44.6 | 55% | 30.19 | 0.0 | |||||||
| 02 | 09:36 | Vrbl 5 | 10.00 | Fair | CLR | 59 | 44.6 | 59% | 30.19 | 0.0 | |||||||
| 02 | 09:15 | Vrbl 5 | 10.00 | Fair | CLR | 57.2 | 44.6 | 63% | 30.2 | 0.0 | |||||||
| 02 | 08:55 | SW 6 | 10.00 | Fair | CLR | 55.4 | 44.6 | 67% | 30.19 | 0.0 | |||||||
| 02 | 08:35 | W 6 | 10.00 | Fair | CLR | 53.6 | 44.6 | 72% | 30.19 | 0.0 | |||||||
| 02 | 08:15 | Calm | 10.00 | Fair | CLR | 51.8 | 44.6 | 77% | 30.19 | 0.0 | |||||||
| 02 | 07:55 | Calm | 10.00 | Fair | CLR | 48.2 | 42.8 | 82% | 30.18 | 0.0 | |||||||
| 02 | 07:35 | Calm | 10.00 | Fair | CLR | 44.6 | 42.8 | 93% | 30.18 | 0.0 | |||||||
| 02 | 07:15 | NW 5 | 10.00 | Fair | CLR | 42.8 | 39.2 | 87% | 41 | 30.17 | 0.0 | ||||||
| 02 | 06:55 | W 6 | 10.00 | Fair | CLR | 42.8 | 39.2 | 87% | 40 | 30.16 | 0.0 | ||||||
| 02 | 06:35 | NW 5 | 10.00 | Fair | CLR | 42.8 | 39.2 | 87% | 41 | 30.15 | 0.0 | ||||||
| 02 | 06:15 | W 3 | 10.00 | Fair | CLR | 44.6 | 39.2 | 81% | 30.15 | 0.0 | |||||||
| 02 | 05:55 | N 5 | 10.00 | Fair | CLR | 48.2 | 41 | 76% | 47 | 30.14 | 0.0 | ||||||
| 02 | 05:39 | N 6 | 10.00 | Fair | CLR | 48.2 | 41 | 76% | 46 | 30.13 | 0.0 | ||||||
| 02 | 04:55 | N 7 | 10.00 | Fair | CLR | 44.6 | 41 | 87% | 41 | 30.14 | 0.0 | ||||||
| 02 | 04:35 | N 8 | 10.00 | Fair | CLR | 44.6 | 41 | 87% | 41 | 30.13 | 0.0 | ||||||
| 02 | 04:15 | N 7 | 10.00 | Fair | CLR | 46.4 | 41 | 82% | 43 | 30.13 | 0.0 | ||||||
| 02 | 03:55 | N 6 | 10.00 | Fair | CLR | 48.2 | 41 | 76% | 46 | 30.13 | 0.0 | ||||||
| 02 | 03:35 | N 3 | 10.00 | Fair | CLR | 48.2 | 42.8 | 82% | 30.12 | 0.0 | |||||||
| 02 | 03:16 | N 5 | 10.00 | Fair | CLR | 46.4 | 42.8 | 87% | 45 | 30.13 | 0.0 | ||||||
| 02 | 02:50 | N 5 | 10.00 | Fair | CLR | 50 | 41 | 71% | 49 | 30.13 | 0.0 | ||||||
| 02 | 02:35 | Calm | 10.00 | Fair | CLR | 50 | 42.8 | 76% | 30.13 | 0.0 | |||||||
| 02 | 02:15 | N 3 | 10.00 | Fair | CLR | 48.2 | 42.8 | 82% | 30.14 | 0.0 | |||||||
| 02 | 01:55 | NW 6 | 10.00 | Fair | CLR | 50 | 42.8 | 76% | 48 | 30.14 | 0.0 | ||||||
| 02 | 01:37 | NW 6 | 10.00 | Fair | CLR | 50 | 42.8 | 76% | 48 | 30.14 | 0.0 | ||||||
| 02 | 01:15 | Calm | 10.00 | A Few Clouds | FEW160 | 50 | 42.8 | 76% | 30.14 | 0.0 | |||||||
| 02 | 01:03 | E 3 | 10.00 | A Few Clouds | FEW170 | 51.8 | 42.8 | 72% | 30.14 | 0.0 | |||||||
| 02 | 00:30 | SE 6 | 10.00 | A Few Clouds | FEW170 | 53.6 | 44.6 | 72% | 30.13 | 0.0 | |||||||
| 02 | 00:15 | SE 6 | 10.00 | Mostly Cloudy | SCT160 BKN180 | 53.6 | 44.6 | 72% | 30.13 | 0.0 | |||||||
| 01 | 23:55 | Calm | 10.00 | Overcast | BKN160 OVC180 | 55.4 | 42.8 | 63% | 30.12 | 0.0 | |||||||
| 01 | 23:35 | Calm | 10.00 | Overcast | OVC170 | 57.2 | 42.8 | 59% | 30.12 | 0.0 | |||||||
| 01 | 23:15 | Calm | 10.00 | Overcast | FEW160 OVC180 | 59 | 42.8 | 55% | 30.12 | 0.0 | |||||||
| 01 | 22:55 | Calm | 10.00 | Overcast | OVC190 | 59 | 42.8 | 55% | 30.12 | 0.0 | |||||||
| 01 | 21:33 | N 3 | 9.00 | A Few Clouds | FEW240 | 60.8 | 42.8 | 52% | 30.09 | 0.0 | |||||||
| 01 | 21:15 | N 3 | 10.00 | Mostly Cloudy | FEW160 SCT180 BKN240 | 60.8 | 42.8 | 52% | 30.08 | 0.0 | |||||||
| 01 | 20:35 | N 5 | 10.00 | Mostly Cloudy | SCT190 BKN210 BKN240 | 62.6 | 42.8 | 49% | 30.07 | 0.0 | |||||||
| 01 | 20:15 | N 5 | 10.00 | Fair | CLR | 62.6 | 42.8 | 49% | 30.06 | 0.0 | |||||||
| 01 | 19:55 | N 6 | 10.00 | Partly Cloudy | SCT090 | 62.6 | 42.8 | 49% | 30.06 | 0.0 | |||||||
| 01 | 19:35 | NE 5 | 10.00 | Overcast | OVC085 | 64.4 | 42.8 | 46% | 30.06 | 0.0 | |||||||
| 01 | 19:15 | NE 6 | 10.00 | Overcast | OVC080 | 64.4 | 42.8 | 46% | 30.05 | 0.0 | |||||||
| 01 | 18:55 | NE 6 | 10.00 | Overcast | BKN075 OVC085 | 66.2 | 41 | 40% | 30.05 | 0.0 | |||||||
| 01 | 18:35 | NE 8 | 10.00 | Overcast | OVC070 | 66.2 | 42.8 | 43% | 30.05 | 0.0 | |||||||
| 01 | 18:15 | NE 8 | 10.00 | Overcast | OVC070 | 66.2 | 41 | 40% | 30.04 | 0.0 | |||||||
| 01 | 17:55 | N 10 | 10.00 | Overcast | OVC075 | 66.2 | 41 | 40% | 30.04 | 0.0 | |||||||
| 01 | 17:35 | NE 12 | 10.00 | Overcast | FEW070 OVC080 | 66.2 | 41 | 40% | 30.03 | 0.0 | |||||||
| 01 | 17:15 | N 10 | 10.00 | Overcast | BKN070 OVC085 | 66.2 | 41 | 40% | 30.03 | 0.0 | |||||||
| 01 | 16:55 | N 9 | 10.00 | Overcast | FEW060 SCT075 OVC095 | 68 | 41 | 38% | 30.03 | 0.0 | |||||||
| 01 | 16:35 | N 12 | 10.00 | Overcast | SCT065 SCT075 OVC090 | 68 | 41 | 38% | 30.03 | 0.0 | |||||||
| 01 | 16:09 | E 9 | 10.00 | Overcast | OVC075 | 68 | 39.2 | 35% | 30.03 | 0.0 | |||||||
| 01 | 15:55 | NE 7 G 14 | 10.00 | Overcast | BKN075 OVC080 | 68 | 39.2 | 35% | 30.04 | 0.0 | |||||||
| 01 | 15:35 | NE 8 | 10.00 | Overcast | BKN075 OVC090 | 68 | 37.4 | 33% | 30.04 | 0.0 | |||||||
| 01 | 15:15 | NE 8 G 14 | 6.00 | Mostly Cloudy with Haze | BKN085 | 69.8 | 39.2 | 33% | 30.05 | 0.0 | |||||||
| 01 | 14:55 | NE 7 G 15 | 10.00 | Overcast | SCT065 OVC080 | 68 | 39.2 | 35% | 30.05 | 0.0 | |||||||
| 01 | 14:35 | Vrbl 6 G 15 | 10.00 | Overcast | SCT065 BKN080 OVC130 | 69.8 | 39.2 | 33% | 30.06 | 0.0 | |||||||
| 01 | 14:15 | E 7 G 15 | 10.00 | Overcast | SCT060 BKN075 OVC130 | 68 | 39.2 | 35% | 30.06 | 0.0 | |||||||
| 01 | 13:54 | E 12 G 21 | 10.00 | Overcast | SCT060 SCT070 OVC130 | 68 | 39.2 | 35% | 30.07 | 0.0 | |||||||
| 01 | 13:35 | NE 10 G 20 | 10.00 | Overcast | OVC130 | 69.8 | 41 | 35% | 30.08 | 0.0 | |||||||
| 01 | 13:15 | E 13 | 10.00 | Overcast | OVC130 | 68 | 41 | 38% | 30.09 | 0.0 | |||||||
| 01 | 12:53 | E 9 G 20 | 10.00 | Overcast | OVC120 | 68 | 41 | 38% | 30.1 | 0.0 | |||||||
| 01 | 12:35 | E 10 G 17 | 10.00 | Overcast | OVC120 | 68 | 39.2 | 35% | 30.1 | 0.0 | |||||||
| 01 | 12:15 | NE 13 G 20 | 10.00 | Mostly Cloudy | BKN130 | 69.8 | 39.2 | 33% | 30.1 | 0.0 | |||||||
| 01 | 11:55 | E 15 | 10.00 | A Few Clouds | FEW130 | 68 | 41 | 38% | 30.1 | 0.0 | |||||||
| 01 | 11:35 | E 13 G 21 | 10.00 | Partly Cloudy | SCT130 | 64.4 | 39.2 | 40% | 30.1 | 0.0 | |||||||
| 01 | 11:12 | NE 13 | 10.00 | A Few Clouds | FEW130 | 66.2 | 41 | 40% | 30.11 | 0.0 | |||||||
| 01 | 10:55 | NE 13 | 10.00 | Partly Cloudy | SCT120 | 66.2 | 41 | 40% | 30.1 | 0.0 | |||||||
| 01 | 10:35 | E 15 | 10.00 | Overcast | OVC120 | 64.4 | 41 | 43% | 30.1 | 0.0 | |||||||
| 01 | 10:15 | E 10 | 10.00 | Mostly Cloudy | BKN120 | 60.8 | 41 | 48% | 30.08 | 0.0 | |||||||
| 01 | 09:55 | NE 13 G 18 | 10.00 | Fair | CLR | 59 | 42.8 | 55% | 30.08 | 0.0 | |||||||
| 01 | 09:35 | NE 14 G 20 | 10.00 | Fair | CLR | 59 | 42.8 | 55% | 30.08 | 0.0 | |||||||
| 01 | 09:15 | NE 14 | 10.00 | Fair | CLR | 57.2 | 42.8 | 59% | 30.08 | 0.0 | |||||||
| 01 | 08:55 | NE 12 G 18 | 10.00 | Fair | CLR | 57.2 | 42.8 | 59% | 30.08 | 0.0 | |||||||
| 01 | 08:35 | NE 14 | 10.00 | Fair | CLR | 55.4 | 41 | 59% | 30.09 | 0.0 | |||||||
| 01 | 08:15 | NE 9 | 10.00 | Fair | CLR | 53.6 | 41 | 63% | 30.09 | 0.0 | |||||||
| 01 | 07:55 | N 13 | 10.00 | Fair | CLR | 51.8 | 39.2 | 62% | 30.08 | 0.0 | |||||||
| 01 | 07:35 | NE 9 | 10.00 | Partly Cloudy | SCT220 | 51.8 | 41 | 67% | 30.07 | 0.0 | |||||||
| 01 | 07:15 | NE 13 | 10.00 | Partly Cloudy | SCT220 SCT240 | 51.8 | 39.2 | 62% | 30.06 | 0.0 | |||||||
| 01 | 06:55 | NE 9 | 10.00 | Partly Cloudy | SCT180 SCT200 | 51.8 | 39.2 | 62% | 30.05 | 0.0 | |||||||
| 01 | 06:35 | NE 10 | 10.00 | Overcast | BKN190 OVC210 | 51.8 | 39.2 | 62% | 30.05 | 0.0 | |||||||
| 01 | 06:15 | NE 10 | 10.00 | Overcast | BKN190 OVC210 | 51.8 | 39.2 | 62% | 30.05 | 0.0 | |||||||
| 01 | 05:55 | NE 10 | 10.00 | Overcast | BKN190 OVC210 | 53.6 | 39.2 | 58% | 30.05 | 0.0 | |||||||
| 01 | 05:35 | NE 9 | 10.00 | Overcast | SCT110 BKN190 OVC210 | 53.6 | 39.2 | 58% | 30.05 | 0.0 | |||||||
| 01 | 05:15 | NE 9 | 10.00 | Overcast | FEW110 BKN200 OVC220 | 53.6 | 39.2 | 58% | 30.05 | 0.0 | |||||||
| 01 | 04:55 | NE 12 | 10.00 | Overcast | FEW110 BKN210 OVC230 | 55.4 | 39.2 | 55% | 30.04 | 0.0 | |||||||
| 01 | 04:33 | NE 9 | 10.00 | Overcast | SCT110 BKN210 OVC230 | 55.4 | 39.2 | 55% | 30.04 | 0.0 | |||||||
| 01 | 04:15 | NE 8 | 10.00 | Overcast | OVC110 | 55.4 | 39.2 | 55% | 30.04 | 0.0 | |||||||
| 01 | 03:55 | NE 8 | 10.00 | Mostly Cloudy | BKN110 BKN240 | 53.6 | 39.2 | 58% | 30.05 | 0.0 | |||||||
| 01 | 03:35 | NE 8 | 10.00 | Fair | CLR | 53.6 | 39.2 | 58% | 30.05 | 0.0 | |||||||
| 01 | 03:15 | NE 9 | 10.00 | Fair | CLR | 53.6 | 39.2 | 58% | 30.05 | 0.0 | |||||||
| 01 | 02:55 | NE 8 | 10.00 | Fair | CLR | 53.6 | 39.2 | 58% | 30.06 | 0.0 | |||||||
| 01 | 02:35 | NE 8 | 10.00 | Partly Cloudy | SCT220 SCT240 | 53.6 | 39.2 | 58% | 30.06 | 0.0 | |||||||
| 01 | 02:15 | NE 7 | 10.00 | Overcast | BKN220 OVC240 | 55.4 | 39.2 | 55% | 30.06 | 0.0 | |||||||
| 01 | 01:55 | NE 7 | 10.00 | Mostly Cloudy | FEW110 BKN220 BKN240 | 55.4 | 39.2 | 55% | 30.06 | 0.0 | |||||||
| 01 | 01:35 | NE 8 | 10.00 | Overcast | SCT210 OVC230 | 57.2 | 39.2 | 51% | 30.06 | 0.0 | |||||||
| 01 | 01:15 | NE 8 | 10.00 | Overcast | FEW180 OVC210 | 57.2 | 37.4 | 48% | 30.06 | 0.0 | |||||||
| 01 | 00:49 | NE 8 | 10.00 | Overcast | SCT070 BKN180 OVC220 | 57.2 | 37.4 | 48% | 30.07 | 0.0 | |||||||
| 01 | 00:35 | NE 8 | 10.00 | Overcast | SCT070 OVC220 | 59 | 37.4 | 45% | 30.06 | 0.0 | |||||||
| 01 | 00:15 | NE 8 | 10.00 | Overcast | FEW110 OVC220 | 59 | 37.4 | 45% | 30.06 | 0.0 | |||||||
| 30 | 23:55 | NE 8 | 10.00 | Overcast | FEW070 SCT090 OVC110 | 60.8 | 37.4 | 42% | 30.06 | 0.0 | |||||||
| 30 | 23:35 | NE 9 | 10.00 | Overcast | SCT070 OVC085 | 60.8 | 35.6 | 39% | 30.06 | 0.0 | |||||||
| 30 | 23:15 | NE 7 | 10.00 | Overcast | SCT070 OVC085 | 62.6 | 35.6 | 37% | 30.06 | 0.0 | |||||||
| 30 | 22:55 | E 8 | 10.00 | Overcast | OVC070 | 62.6 | 35.6 | 37% | 30.05 | 0.0 | |||||||
| 30 | 22:35 | E 10 | 10.00 | Overcast | OVC065 | 62.6 | 35.6 | 37% | 30.05 | 0.0 | |||||||
| 30 | 22:15 | NE 10 | 10.00 | Overcast | BKN065 OVC080 | 64.4 | 35.6 | 34% | 30.03 | 0.0 | |||||||
| 30 | 21:55 | E 10 | 10.00 | Overcast | OVC065 | 64.4 | 35.6 | 34% | 30.03 | 0.0 | |||||||
| 30 | 21:35 | NE 12 G 18 | 10.00 | Overcast | OVC065 | 64.4 | 35.6 | 34% | 30.02 | 0.0 | |||||||
| 30 | 21:21 | NE 15 | 10.00 | Overcast | OVC060 | 64.4 | 35.6 | 34% | 30.01 | 0.0 | |||||||
| 30 | 20:55 | NE 18 | 10.00 | Overcast | OVC060 | 64.4 | 33.8 | 32% | 30 | 0.0 | |||||||
| 30 | 20:34 | NE 17 G 24 | 10.00 | Overcast | OVC060 | 64.4 | 35.6 | 34% | 29.99 | 0.0 | |||||||
| 30 | 20:15 | NE 14 | 10.00 | Overcast | OVC060 | 66.2 | 42.8 | 43% | 29.98 | 0.0 | |||||||
| 30 | 19:35 | E 9 | 10.00 | Overcast | OVC060 | 66.2 | 44.6 | 46% | 29.96 | 0.0 | |||||||
| 30 | 19:15 | E 8 | 10.00 | Overcast | OVC060 | 66.2 | 44.6 | 46% | 29.96 | 0.0 | |||||||
| 30 | 18:55 | E 10 | 10.00 | Overcast | OVC055 | 68 | 44.6 | 43% | 29.97 | 0.0 | |||||||
| 30 | 18:33 | E 12 | 10.00 | Overcast | OVC055 | 68 | 44.6 | 43% | 29.95 | 0.0 | |||||||
| 30 | 18:15 | NE 9 | 10.00 | Overcast | OVC055 | 68 | 44.6 | 43% | 29.95 | 0.0 | |||||||
| 30 | 17:55 | E 10 | 10.00 | Overcast | OVC055 | 68 | 44.6 | 43% | 29.95 | 0.0 | |||||||
| 30 | 17:35 | NE 10 | 10.00 | Overcast | OVC060 | 68 | 46.4 | 46% | 29.95 | 0.0 | |||||||
| 30 | 17:15 | E 10 | 10.00 | Overcast | OVC060 | 68 | 46.4 | 46% | 29.95 | 0.0 | |||||||
| 30 | 16:55 | E 9 | 10.00 | Overcast | OVC060 | 69.8 | 46.4 | 43% | 29.95 | 0.0 | |||||||
| Date | Time (cdt) | Wind (mph) | Vis. (mi.) | Weather | Sky Cond. | Air | Dwpt | Max. | Min. | Relative Humidity | Wind Chill (°F) | Heat Index (°F) | altimeter (in) | sea level (mb) | 1 hr | 3 hr | 6 hr |
| 6 hour | |||||||||||||||||
| Temperature (ºF) | Pressure | Precipitation (in) | |||||||||||||||